sensor_id;sensor_type;location;lat;lon;timestamp;temperature;humidity
41928;DHT22;27616;51.420;6.788;2023-08-08T00:02:06;15.20;99.90
41928;DHT22;27616;51.420;6.788;2023-08-08T00:04:32;15.20;99.90
41928;DHT22;27616;51.420;6.788;2023-08-08T00:06:57;15.20;99.90
41928;DHT22;27616;51.420;6.788;2023-08-08T00:09:23;15.20;99.90
41928;DHT22;27616;51.420;6.788;2023-08-08T00:11:48;15.20;99.90
41928;DHT22;27616;51.420;6.788;2023-08-08T00:14:14;15.20;99.90
41928;DHT22;27616;51.420;6.788;2023-08-08T00:16:40;15.20;99.90
41928;DHT22;27616;51.420;6.788;2023-08-08T00:19:05;15.10;99.90
41928;DHT22;27616;51.420;6.788;2023-08-08T00:21:31;15.00;99.90
41928;DHT22;27616;51.420;6.788;2023-08-08T00:23:57;15.00;99.90
41928;DHT22;27616;51.420;6.788;2023-08-08T00:26:22;14.90;99.90
41928;DHT22;27616;51.420;6.788;2023-08-08T00:28:48;15.00;99.90
41928;DHT22;27616;51.420;6.788;2023-08-08T00:31:13;15.10;99.90
41928;DHT22;27616;51.420;6.788;2023-08-08T00:33:42;15.10;99.90
41928;DHT22;27616;51.420;6.788;2023-08-08T00:36:08;15.10;99.90
41928;DHT22;27616;51.420;6.788;2023-08-08T00:38:34;15.20;99.90
41928;DHT22;27616;51.420;6.788;2023-08-08T00:40:59;15.20;99.90
41928;DHT22;27616;51.420;6.788;2023-08-08T00:43:25;15.20;99.90
41928;DHT22;27616;51.420;6.788;2023-08-08T00:45:50;15.20;99.90
41928;DHT22;27616;51.420;6.788;2023-08-08T00:48:16;15.10;99.90
41928;DHT22;27616;51.420;6.788;2023-08-08T00:50:43;15.00;99.90
41928;DHT22;27616;51.420;6.788;2023-08-08T00:53:12;15.00;99.90
41928;DHT22;27616;51.420;6.788;2023-08-08T00:55:38;15.00;99.90
41928;DHT22;27616;51.420;6.788;2023-08-08T00:58:04;14.90;99.90
41928;DHT22;27616;51.420;6.788;2023-08-08T01:00:30;14.90;99.90
41928;DHT22;27616;51.420;6.788;2023-08-08T01:02:55;14.90;99.90
41928;DHT22;27616;51.420;6.788;2023-08-08T01:05:21;14.90;99.90
41928;DHT22;27616;51.420;6.788;2023-08-08T01:08:04;14.90;99.90
41928;DHT22;27616;51.420;6.788;2023-08-08T01:10:38;14.80;99.90
41928;DHT22;27616;51.420;6.788;2023-08-08T01:13:07;14.70;99.90
41928;DHT22;27616;51.420;6.788;2023-08-08T01:15:35;14.70;99.90
41928;DHT22;27616;51.420;6.788;2023-08-08T01:18:06;14.80;99.90
41928;DHT22;27616;51.420;6.788;2023-08-08T01:20:33;14.80;99.90
41928;DHT22;27616;51.420;6.788;2023-08-08T01:25:44;14.70;99.90
41928;DHT22;27616;51.420;6.788;2023-08-08T01:28:11;14.60;99.90
41928;DHT22;27616;51.420;6.788;2023-08-08T01:30:37;14.60;99.90
41928;DHT22;27616;51.420;6.788;2023-08-08T01:33:04;14.50;99.90
41928;DHT22;27616;51.420;6.788;2023-08-08T01:35:31;14.50;99.90
41928;DHT22;27616;51.420;6.788;2023-08-08T01:38:17;14.50;99.90
41928;DHT22;27616;51.420;6.788;2023-08-08T01:40:45;14.50;99.90
41928;DHT22;27616;51.420;6.788;2023-08-08T01:43:12;14.50;99.90
41928;DHT22;27616;51.420;6.788;2023-08-08T01:45:39;14.50;99.90
41928;DHT22;27616;51.420;6.788;2023-08-08T01:48:09;14.50;99.90
41928;DHT22;27616;51.420;6.788;2023-08-08T01:50:35;14.50;99.90
41928;DHT22;27616;51.420;6.788;2023-08-08T01:53:01;14.50;99.90
41928;DHT22;27616;51.420;6.788;2023-08-08T01:55:27;14.50;99.90
41928;DHT22;27616;51.420;6.788;2023-08-08T01:57:52;14.50;99.90
41928;DHT22;27616;51.420;6.788;2023-08-08T02:00:18;14.50;99.90
41928;DHT22;27616;51.420;6.788;2023-08-08T02:02:44;14.50;99.90
41928;DHT22;27616;51.420;6.788;2023-08-08T02:05:10;14.50;99.90
41928;DHT22;27616;51.420;6.788;2023-08-08T02:07:36;14.50;99.90
41928;DHT22;27616;51.420;6.788;2023-08-08T02:10:02;14.50;99.90
41928;DHT22;27616;51.420;6.788;2023-08-08T02:12:29;14.50;99.90
41928;DHT22;27616;51.420;6.788;2023-08-08T02:14:56;14.50;99.90
41928;DHT22;27616;51.420;6.788;2023-08-08T02:17:22;14.50;99.90
41928;DHT22;27616;51.420;6.788;2023-08-08T02:19:48;14.50;99.90
41928;DHT22;27616;51.420;6.788;2023-08-08T02:22:14;14.50;99.90
41928;DHT22;27616;51.420;6.788;2023-08-08T02:24:39;14.50;99.90
41928;DHT22;27616;51.420;6.788;2023-08-08T02:27:05;14.50;99.90
41928;DHT22;27616;51.420;6.788;2023-08-08T02:29:31;14.50;99.90
41928;DHT22;27616;51.420;6.788;2023-08-08T02:31:59;14.50;99.90
41928;DHT22;27616;51.420;6.788;2023-08-08T02:34:25;14.50;99.90
41928;DHT22;27616;51.420;6.788;2023-08-08T02:36:51;14.60;99.90
41928;DHT22;27616;51.420;6.788;2023-08-08T02:39:16;14.50;99.90
41928;DHT22;27616;51.420;6.788;2023-08-08T02:41:42;14.50;99.90
41928;DHT22;27616;51.420;6.788;2023-08-08T02:44:08;14.50;99.90
41928;DHT22;27616;51.420;6.788;2023-08-08T02:46:34;14.40;99.90
41928;DHT22;27616;51.420;6.788;2023-08-08T02:49:00;14.50;99.90
41928;DHT22;27616;51.420;6.788;2023-08-08T02:51:26;14.50;99.90
41928;DHT22;27616;51.420;6.788;2023-08-08T02:53:52;14.50;99.90
41928;DHT22;27616;51.420;6.788;2023-08-08T02:56:18;14.50;99.90
41928;DHT22;27616;51.420;6.788;2023-08-08T02:58:43;14.50;99.90
41928;DHT22;27616;51.420;6.788;2023-08-08T03:01:09;14.50;99.90
41928;DHT22;27616;51.420;6.788;2023-08-08T03:03:36;14.50;99.90
41928;DHT22;27616;51.420;6.788;2023-08-08T03:06:03;14.50;99.90
41928;DHT22;27616;51.420;6.788;2023-08-08T03:08:29;14.50;99.90
41928;DHT22;27616;51.420;6.788;2023-08-08T03:10:56;14.50;99.90
41928;DHT22;27616;51.420;6.788;2023-08-08T03:13:22;14.50;99.90
41928;DHT22;27616;51.420;6.788;2023-08-08T03:15:48;14.50;99.90
41928;DHT22;27616;51.420;6.788;2023-08-08T03:18:14;14.50;99.90
41928;DHT22;27616;51.420;6.788;2023-08-08T03:20:41;14.50;99.90
41928;DHT22;27616;51.420;6.788;2023-08-08T03:23:08;14.40;99.90
41928;DHT22;27616;51.420;6.788;2023-08-08T03:25:33;14.40;99.90
41928;DHT22;27616;51.420;6.788;2023-08-08T03:28:00;14.30;99.90
41928;DHT22;27616;51.420;6.788;2023-08-08T03:30:26;14.40;99.90
41928;DHT22;27616;51.420;6.788;2023-08-08T03:32:52;14.30;99.90
41928;DHT22;27616;51.420;6.788;2023-08-08T03:35:17;14.20;99.90
41928;DHT22;27616;51.420;6.788;2023-08-08T03:37:44;14.20;99.90
41928;DHT22;27616;51.420;6.788;2023-08-08T03:40:11;14.10;99.90
41928;DHT22;27616;51.420;6.788;2023-08-08T03:42:39;14.10;99.90
41928;DHT22;27616;51.420;6.788;2023-08-08T03:45:05;14.10;99.90
41928;DHT22;27616;51.420;6.788;2023-08-08T03:47:31;14.00;99.90
41928;DHT22;27616;51.420;6.788;2023-08-08T03:49:57;14.00;99.90
41928;DHT22;27616;51.420;6.788;2023-08-08T03:52:24;14.00;99.90
41928;DHT22;27616;51.420;6.788;2023-08-08T03:54:51;13.90;99.90
41928;DHT22;27616;51.420;6.788;2023-08-08T03:57:16;13.90;99.90
41928;DHT22;27616;51.420;6.788;2023-08-08T03:59:42;13.90;99.90
41928;DHT22;27616;51.420;6.788;2023-08-08T04:02:08;13.90;99.90
41928;DHT22;27616;51.420;6.788;2023-08-08T04:04:34;13.90;99.90
41928;DHT22;27616;51.420;6.788;2023-08-08T04:06:59;13.90;99.90
41928;DHT22;27616;51.420;6.788;2023-08-08T04:09:25;13.90;99.90
41928;DHT22;27616;51.420;6.788;2023-08-08T04:11:51;13.90;99.90
41928;DHT22;27616;51.420;6.788;2023-08-08T04:14:16;13.90;99.90
41928;DHT22;27616;51.420;6.788;2023-08-08T04:16:42;13.90;99.90
41928;DHT22;27616;51.420;6.788;2023-08-08T04:19:07;13.90;99.90
41928;DHT22;27616;51.420;6.788;2023-08-08T04:21:33;13.90;99.90
41928;DHT22;27616;51.420;6.788;2023-08-08T04:23:59;13.90;99.90
41928;DHT22;27616;51.420;6.788;2023-08-08T04:26:26;14.00;99.90
41928;DHT22;27616;51.420;6.788;2023-08-08T04:28:51;13.90;99.90
41928;DHT22;27616;51.420;6.788;2023-08-08T04:31:17;13.90;99.90
41928;DHT22;27616;51.420;6.788;2023-08-08T04:33:43;13.90;99.90
41928;DHT22;27616;51.420;6.788;2023-08-08T04:36:08;13.90;99.90
41928;DHT22;27616;51.420;6.788;2023-08-08T04:38:34;13.80;99.90
41928;DHT22;27616;51.420;6.788;2023-08-08T04:41:00;13.90;99.90
41928;DHT22;27616;51.420;6.788;2023-08-08T04:43:26;13.90;99.90
41928;DHT22;27616;51.420;6.788;2023-08-08T04:45:53;13.90;99.90
41928;DHT22;27616;51.420;6.788;2023-08-08T04:48:19;14.00;99.90
41928;DHT22;27616;51.420;6.788;2023-08-08T04:50:46;14.00;99.90
41928;DHT22;27616;51.420;6.788;2023-08-08T04:53:12;14.00;99.90
41928;DHT22;27616;51.420;6.788;2023-08-08T04:55:37;13.90;99.90
41928;DHT22;27616;51.420;6.788;2023-08-08T04:58:03;13.90;99.90
41928;DHT22;27616;51.420;6.788;2023-08-08T05:00:29;13.90;99.90
41928;DHT22;27616;51.420;6.788;2023-08-08T05:02:54;13.90;99.90
41928;DHT22;27616;51.420;6.788;2023-08-08T05:05:20;14.00;99.90
41928;DHT22;27616;51.420;6.788;2023-08-08T05:07:46;14.00;99.90
41928;DHT22;27616;51.420;6.788;2023-08-08T05:10:11;14.00;99.90
41928;DHT22;27616;51.420;6.788;2023-08-08T05:12:37;14.00;99.90
41928;DHT22;27616;51.420;6.788;2023-08-08T05:15:03;14.00;99.90
41928;DHT22;27616;51.420;6.788;2023-08-08T05:17:30;14.00;99.90
41928;DHT22;27616;51.420;6.788;2023-08-08T05:19:57;14.00;99.90
41928;DHT22;27616;51.420;6.788;2023-08-08T05:22:23;14.00;99.90
41928;DHT22;27616;51.420;6.788;2023-08-08T05:24:48;14.10;99.90
41928;DHT22;27616;51.420;6.788;2023-08-08T05:27:14;14.00;99.90
41928;DHT22;27616;51.420;6.788;2023-08-08T05:29:39;14.10;99.90
41928;DHT22;27616;51.420;6.788;2023-08-08T05:32:07;14.00;99.90
41928;DHT22;27616;51.420;6.788;2023-08-08T05:34:34;14.10;99.90
41928;DHT22;27616;51.420;6.788;2023-08-08T05:36:59;14.10;99.90
41928;DHT22;27616;51.420;6.788;2023-08-08T05:39:25;14.10;99.90
41928;DHT22;27616;51.420;6.788;2023-08-08T05:41:50;14.10;99.90
41928;DHT22;27616;51.420;6.788;2023-08-08T05:44:16;14.10;99.90
41928;DHT22;27616;51.420;6.788;2023-08-08T05:46:42;14.20;99.90
41928;DHT22;27616;51.420;6.788;2023-08-08T05:49:07;14.30;99.90
41928;DHT22;27616;51.420;6.788;2023-08-08T05:51:33;14.30;99.90
41928;DHT22;27616;51.420;6.788;2023-08-08T05:53:58;14.30;99.90
41928;DHT22;27616;51.420;6.788;2023-08-08T05:56:24;14.30;99.90
41928;DHT22;27616;51.420;6.788;2023-08-08T05:58:50;14.40;99.90
41928;DHT22;27616;51.420;6.788;2023-08-08T06:01:15;14.40;99.90
41928;DHT22;27616;51.420;6.788;2023-08-08T06:03:41;14.50;99.90
41928;DHT22;27616;51.420;6.788;2023-08-08T06:06:07;14.50;99.90
41928;DHT22;27616;51.420;6.788;2023-08-08T06:08:33;14.40;99.90
41928;DHT22;27616;51.420;6.788;2023-08-08T06:10:59;14.50;99.90
41928;DHT22;27616;51.420;6.788;2023-08-08T06:13:24;14.50;99.90
41928;DHT22;27616;51.420;6.788;2023-08-08T06:15:50;14.50;99.90
41928;DHT22;27616;51.420;6.788;2023-08-08T06:18:16;14.50;99.90
41928;DHT22;27616;51.420;6.788;2023-08-08T06:20:43;14.50;99.90
41928;DHT22;27616;51.420;6.788;2023-08-08T06:23:08;14.60;99.90
41928;DHT22;27616;51.420;6.788;2023-08-08T06:25:34;14.60;99.90
41928;DHT22;27616;51.420;6.788;2023-08-08T06:27:59;14.60;99.90
41928;DHT22;27616;51.420;6.788;2023-08-08T06:30:25;14.60;99.90
41928;DHT22;27616;51.420;6.788;2023-08-08T06:32:50;14.70;99.90
41928;DHT22;27616;51.420;6.788;2023-08-08T06:35:16;14.70;99.90
41928;DHT22;27616;51.420;6.788;2023-08-08T06:37:42;14.70;99.90
41928;DHT22;27616;51.420;6.788;2023-08-08T06:40:09;14.80;99.90
41928;DHT22;27616;51.420;6.788;2023-08-08T06:42:36;14.80;99.90
41928;DHT22;27616;51.420;6.788;2023-08-08T06:45:02;15.00;99.90
41928;DHT22;27616;51.420;6.788;2023-08-08T06:47:28;15.00;99.90
41928;DHT22;27616;51.420;6.788;2023-08-08T06:49:53;15.00;99.90
41928;DHT22;27616;51.420;6.788;2023-08-08T06:52:20;14.90;99.90
41928;DHT22;27616;51.420;6.788;2023-08-08T06:54:46;15.00;99.90
41928;DHT22;27616;51.420;6.788;2023-08-08T06:57:12;15.10;99.90
41928;DHT22;27616;51.420;6.788;2023-08-08T06:59:38;15.10;99.90
41928;DHT22;27616;51.420;6.788;2023-08-08T07:02:04;15.20;99.90
41928;DHT22;27616;51.420;6.788;2023-08-08T07:04:29;15.20;99.90
41928;DHT22;27616;51.420;6.788;2023-08-08T07:06:55;15.30;99.90
41928;DHT22;27616;51.420;6.788;2023-08-08T07:09:21;15.30;99.90
41928;DHT22;27616;51.420;6.788;2023-08-08T07:11:47;15.50;99.90
41928;DHT22;27616;51.420;6.788;2023-08-08T07:14:13;15.90;99.90
41928;DHT22;27616;51.420;6.788;2023-08-08T07:16:38;16.00;99.90
41928;DHT22;27616;51.420;6.788;2023-08-08T07:19:04;15.90;99.90
41928;DHT22;27616;51.420;6.788;2023-08-08T07:21:31;16.00;99.90
41928;DHT22;27616;51.420;6.788;2023-08-08T07:23:57;16.00;99.90
41928;DHT22;27616;51.420;6.788;2023-08-08T07:26:23;16.00;99.90
41928;DHT22;27616;51.420;6.788;2023-08-08T07:28:48;16.00;99.90
41928;DHT22;27616;51.420;6.788;2023-08-08T07:31:14;16.10;99.90
41928;DHT22;27616;51.420;6.788;2023-08-08T07:33:40;16.20;99.90
41928;DHT22;27616;51.420;6.788;2023-08-08T07:36:05;16.20;99.90
41928;DHT22;27616;51.420;6.788;2023-08-08T07:38:31;16.30;99.90
41928;DHT22;27616;51.420;6.788;2023-08-08T07:40:58;16.40;99.90
41928;DHT22;27616;51.420;6.788;2023-08-08T07:43:24;16.50;99.90
41928;DHT22;27616;51.420;6.788;2023-08-08T07:45:49;16.60;99.90
41928;DHT22;27616;51.420;6.788;2023-08-08T07:48:15;16.70;99.90
41928;DHT22;27616;51.420;6.788;2023-08-08T07:50:41;16.80;99.90
41928;DHT22;27616;51.420;6.788;2023-08-08T07:53:06;16.80;99.90
41928;DHT22;27616;51.420;6.788;2023-08-08T07:55:32;16.80;99.90
41928;DHT22;27616;51.420;6.788;2023-08-08T07:57:58;17.00;99.90
41928;DHT22;27616;51.420;6.788;2023-08-08T08:00:24;17.10;99.90
41928;DHT22;27616;51.420;6.788;2023-08-08T08:02:49;17.10;99.90
41928;DHT22;27616;51.420;6.788;2023-08-08T08:05:15;17.10;99.90
41928;DHT22;27616;51.420;6.788;2023-08-08T08:07:41;17.20;99.90
41928;DHT22;27616;51.420;6.788;2023-08-08T08:10:09;17.20;99.90
41928;DHT22;27616;51.420;6.788;2023-08-08T08:12:36;17.40;99.90
41928;DHT22;27616;51.420;6.788;2023-08-08T08:15:02;17.60;99.90
41928;DHT22;27616;51.420;6.788;2023-08-08T08:17:28;17.60;99.90
41928;DHT22;27616;51.420;6.788;2023-08-08T08:19:54;17.60;99.90
41928;DHT22;27616;51.420;6.788;2023-08-08T08:22:20;17.60;99.90
41928;DHT22;27616;51.420;6.788;2023-08-08T08:24:45;17.70;99.90
41928;DHT22;27616;51.420;6.788;2023-08-08T08:27:12;17.70;99.90
41928;DHT22;27616;51.420;6.788;2023-08-08T08:29:37;17.70;99.90
41928;DHT22;27616;51.420;6.788;2023-08-08T08:32:03;17.60;99.90
41928;DHT22;27616;51.420;6.788;2023-08-08T08:34:29;17.60;99.90
41928;DHT22;27616;51.420;6.788;2023-08-08T08:36:55;17.70;99.90
41928;DHT22;27616;51.420;6.788;2023-08-08T08:39:20;17.50;99.90
41928;DHT22;27616;51.420;6.788;2023-08-08T08:41:49;17.50;99.90
41928;DHT22;27616;51.420;6.788;2023-08-08T08:44:18;17.40;99.90
41928;DHT22;27616;51.420;6.788;2023-08-08T08:46:47;17.50;99.90
41928;DHT22;27616;51.420;6.788;2023-08-08T08:49:14;17.50;99.90
41928;DHT22;27616;51.420;6.788;2023-08-08T08:51:40;17.70;99.90
41928;DHT22;27616;51.420;6.788;2023-08-08T08:54:05;17.60;99.90
41928;DHT22;27616;51.420;6.788;2023-08-08T08:56:31;17.80;99.90
41928;DHT22;27616;51.420;6.788;2023-08-08T08:58:59;17.90;99.90
41928;DHT22;27616;51.420;6.788;2023-08-08T09:01:25;17.90;99.90
41928;DHT22;27616;51.420;6.788;2023-08-08T09:03:52;17.90;99.90
41928;DHT22;27616;51.420;6.788;2023-08-08T09:06:18;17.90;99.90
41928;DHT22;27616;51.420;6.788;2023-08-08T09:08:46;18.00;99.90
41928;DHT22;27616;51.420;6.788;2023-08-08T09:11:13;18.10;99.90
41928;DHT22;27616;51.420;6.788;2023-08-08T09:13:41;18.20;99.90
41928;DHT22;27616;51.420;6.788;2023-08-08T09:16:08;18.20;99.90
41928;DHT22;27616;51.420;6.788;2023-08-08T09:18:34;18.30;99.90
41928;DHT22;27616;51.420;6.788;2023-08-08T09:21:00;18.20;99.90
41928;DHT22;27616;51.420;6.788;2023-08-08T09:23:25;18.20;99.90
41928;DHT22;27616;51.420;6.788;2023-08-08T09:25:51;18.10;99.90
41928;DHT22;27616;51.420;6.788;2023-08-08T09:28:17;18.10;99.90
41928;DHT22;27616;51.420;6.788;2023-08-08T09:30:43;18.00;99.90
41928;DHT22;27616;51.420;6.788;2023-08-08T09:33:09;17.90;99.90
41928;DHT22;27616;51.420;6.788;2023-08-08T09:35:38;17.80;99.90
41928;DHT22;27616;51.420;6.788;2023-08-08T09:38:04;17.80;99.90
41928;DHT22;27616;51.420;6.788;2023-08-08T09:40:30;17.80;99.90
41928;DHT22;27616;51.420;6.788;2023-08-08T09:42:56;17.70;99.90
41928;DHT22;27616;51.420;6.788;2023-08-08T09:45:22;17.60;99.90
41928;DHT22;27616;51.420;6.788;2023-08-08T09:47:50;17.70;99.90
41928;DHT22;27616;51.420;6.788;2023-08-08T09:50:18;17.80;99.90
41928;DHT22;27616;51.420;6.788;2023-08-08T09:52:46;17.90;99.90
41928;DHT22;27616;51.420;6.788;2023-08-08T09:55:13;18.00;99.90
41928;DHT22;27616;51.420;6.788;2023-08-08T09:57:39;18.00;99.90
41928;DHT22;27616;51.420;6.788;2023-08-08T10:00:08;18.10;99.90
41928;DHT22;27616;51.420;6.788;2023-08-08T10:02:43;18.00;99.90
41928;DHT22;27616;51.420;6.788;2023-08-08T10:05:10;17.90;99.90
41928;DHT22;27616;51.420;6.788;2023-08-08T10:07:35;17.90;99.90
41928;DHT22;27616;51.420;6.788;2023-08-08T10:10:01;18.00;99.90
41928;DHT22;27616;51.420;6.788;2023-08-08T10:12:28;18.20;99.90
41928;DHT22;27616;51.420;6.788;2023-08-08T10:14:55;18.30;99.90
41928;DHT22;27616;51.420;6.788;2023-08-08T10:17:20;18.40;99.90
41928;DHT22;27616;51.420;6.788;2023-08-08T10:19:54;18.50;99.90
41928;DHT22;27616;51.420;6.788;2023-08-08T10:22:24;18.70;99.90
41928;DHT22;27616;51.420;6.788;2023-08-08T10:24:54;18.80;99.90
41928;DHT22;27616;51.420;6.788;2023-08-08T10:27:33;18.90;99.90
41928;DHT22;27616;51.420;6.788;2023-08-08T10:30:06;18.80;99.90
41928;DHT22;27616;51.420;6.788;2023-08-08T10:32:40;18.80;99.90
41928;DHT22;27616;51.420;6.788;2023-08-08T10:35:07;18.90;99.90
41928;DHT22;27616;51.420;6.788;2023-08-08T10:37:35;18.90;99.90
41928;DHT22;27616;51.420;6.788;2023-08-08T10:40:03;19.00;99.90
41928;DHT22;27616;51.420;6.788;2023-08-08T10:42:40;19.00;99.90
41928;DHT22;27616;51.420;6.788;2023-08-08T10:45:11;18.90;99.90
41928;DHT22;27616;51.420;6.788;2023-08-08T10:47:38;18.80;99.90
41928;DHT22;27616;51.420;6.788;2023-08-08T10:50:13;19.00;99.90
41928;DHT22;27616;51.420;6.788;2023-08-08T10:55:31;18.90;99.90
41928;DHT22;27616;51.420;6.788;2023-08-08T10:58:06;18.80;99.90
41928;DHT22;27616;51.420;6.788;2023-08-08T11:00:36;18.70;99.90
41928;DHT22;27616;51.420;6.788;2023-08-08T11:03:03;18.60;99.90
41928;DHT22;27616;51.420;6.788;2023-08-08T11:05:34;18.50;99.90
41928;DHT22;27616;51.420;6.788;2023-08-08T11:08:02;18.30;99.90
41928;DHT22;27616;51.420;6.788;2023-08-08T11:10:28;18.20;99.90
41928;DHT22;27616;51.420;6.788;2023-08-08T11:13:00;18.00;99.90
41928;DHT22;27616;51.420;6.788;2023-08-08T11:15:27;18.00;99.90
41928;DHT22;27616;51.420;6.788;2023-08-08T11:17:55;18.10;99.90
41928;DHT22;27616;51.420;6.788;2023-08-08T11:20:24;18.40;99.90
41928;DHT22;27616;51.420;6.788;2023-08-08T11:22:54;18.70;99.90
41928;DHT22;27616;51.420;6.788;2023-08-08T11:25:21;18.80;99.90
41928;DHT22;27616;51.420;6.788;2023-08-08T11:27:52;19.00;99.90
41928;DHT22;27616;51.420;6.788;2023-08-08T11:30:18;19.10;99.90
41928;DHT22;27616;51.420;6.788;2023-08-08T11:32:46;19.30;99.90
41928;DHT22;27616;51.420;6.788;2023-08-08T11:35:12;19.40;99.90
41928;DHT22;27616;51.420;6.788;2023-08-08T11:37:38;19.30;99.90
41928;DHT22;27616;51.420;6.788;2023-08-08T11:40:04;19.30;99.90
41928;DHT22;27616;51.420;6.788;2023-08-08T11:42:31;19.30;99.90
41928;DHT22;27616;51.420;6.788;2023-08-08T11:44:58;19.20;99.90
41928;DHT22;27616;51.420;6.788;2023-08-08T11:47:27;19.20;99.90
41928;DHT22;27616;51.420;6.788;2023-08-08T11:49:57;19.10;99.90
41928;DHT22;27616;51.420;6.788;2023-08-08T11:52:23;19.20;99.90
41928;DHT22;27616;51.420;6.788;2023-08-08T11:54:52;19.10;99.90
41928;DHT22;27616;51.420;6.788;2023-08-08T11:57:18;19.10;99.90
41928;DHT22;27616;51.420;6.788;2023-08-08T11:59:43;19.20;99.90
41928;DHT22;27616;51.420;6.788;2023-08-08T12:02:10;19.20;99.90
41928;DHT22;27616;51.420;6.788;2023-08-08T12:04:36;19.20;99.90
41928;DHT22;27616;51.420;6.788;2023-08-08T12:07:02;19.20;99.90
41928;DHT22;27616;51.420;6.788;2023-08-08T12:09:31;19.10;99.90
41928;DHT22;27616;51.420;6.788;2023-08-08T12:12:00;19.10;99.90
41928;DHT22;27616;51.420;6.788;2023-08-08T12:14:25;19.00;99.90
41928;DHT22;27616;51.420;6.788;2023-08-08T12:16:51;19.00;99.90
41928;DHT22;27616;51.420;6.788;2023-08-08T12:19:16;19.20;99.90
41928;DHT22;27616;51.420;6.788;2023-08-08T12:21:46;19.50;99.90
41928;DHT22;27616;51.420;6.788;2023-08-08T12:24:12;19.60;99.90
41928;DHT22;27616;51.420;6.788;2023-08-08T12:26:37;19.70;99.90
41928;DHT22;27616;51.420;6.788;2023-08-08T12:29:03;19.80;99.90
41928;DHT22;27616;51.420;6.788;2023-08-08T12:31:29;19.90;99.90
41928;DHT22;27616;51.420;6.788;2023-08-08T12:33:55;19.90;99.90
41928;DHT22;27616;51.420;6.788;2023-08-08T12:36:20;19.80;99.90
41928;DHT22;27616;51.420;6.788;2023-08-08T12:38:46;19.80;99.90
41928;DHT22;27616;51.420;6.788;2023-08-08T12:41:12;19.80;99.90
41928;DHT22;27616;51.420;6.788;2023-08-08T12:43:38;20.00;99.90
41928;DHT22;27616;51.420;6.788;2023-08-08T12:46:04;20.20;99.90
41928;DHT22;27616;51.420;6.788;2023-08-08T12:48:29;20.30;99.90
41928;DHT22;27616;51.420;6.788;2023-08-08T12:50:55;20.20;99.90
41928;DHT22;27616;51.420;6.788;2023-08-08T12:53:21;20.10;99.90
41928;DHT22;27616;51.420;6.788;2023-08-08T12:55:46;20.00;99.90
41928;DHT22;27616;51.420;6.788;2023-08-08T12:58:12;19.80;99.90
41928;DHT22;27616;51.420;6.788;2023-08-08T13:00:37;19.80;99.90
41928;DHT22;27616;51.420;6.788;2023-08-08T13:03:03;19.90;99.90
41928;DHT22;27616;51.420;6.788;2023-08-08T13:05:29;20.00;99.90
41928;DHT22;27616;51.420;6.788;2023-08-08T13:07:55;20.20;99.90
41928;DHT22;27616;51.420;6.788;2023-08-08T13:10:21;20.30;99.90
41928;DHT22;27616;51.420;6.788;2023-08-08T13:12:47;20.40;99.90
41928;DHT22;27616;51.420;6.788;2023-08-08T13:15:13;20.40;99.90
41928;DHT22;27616;51.420;6.788;2023-08-08T13:17:39;20.50;99.90
41928;DHT22;27616;51.420;6.788;2023-08-08T13:20:05;20.70;99.90
41928;DHT22;27616;51.420;6.788;2023-08-08T13:22:33;20.80;99.90
41928;DHT22;27616;51.420;6.788;2023-08-08T13:24:58;20.50;99.90
41928;DHT22;27616;51.420;6.788;2023-08-08T13:27:24;20.40;99.90
41928;DHT22;27616;51.420;6.788;2023-08-08T13:29:50;20.10;99.90
41928;DHT22;27616;51.420;6.788;2023-08-08T13:32:15;20.00;99.90
41928;DHT22;27616;51.420;6.788;2023-08-08T13:34:41;19.90;99.90
41928;DHT22;27616;51.420;6.788;2023-08-08T13:37:06;20.00;99.90
41928;DHT22;27616;51.420;6.788;2023-08-08T13:39:32;20.00;99.90
41928;DHT22;27616;51.420;6.788;2023-08-08T13:41:58;20.10;99.90
41928;DHT22;27616;51.420;6.788;2023-08-08T13:44:23;20.10;99.90
41928;DHT22;27616;51.420;6.788;2023-08-08T13:46:49;20.20;99.90
41928;DHT22;27616;51.420;6.788;2023-08-08T13:49:15;20.20;99.90
41928;DHT22;27616;51.420;6.788;2023-08-08T13:51:40;20.30;99.90
41928;DHT22;27616;51.420;6.788;2023-08-08T13:54:06;20.30;99.90
41928;DHT22;27616;51.420;6.788;2023-08-08T13:56:32;20.30;99.90
41928;DHT22;27616;51.420;6.788;2023-08-08T13:58:57;20.20;99.90
41928;DHT22;27616;51.420;6.788;2023-08-08T14:01:23;20.20;99.90
41928;DHT22;27616;51.420;6.788;2023-08-08T14:03:49;20.30;99.90
41928;DHT22;27616;51.420;6.788;2023-08-08T14:06:14;20.50;99.90
41928;DHT22;27616;51.420;6.788;2023-08-08T14:08:40;20.60;99.90
41928;DHT22;27616;51.420;6.788;2023-08-08T14:11:05;20.70;99.90
41928;DHT22;27616;51.420;6.788;2023-08-08T14:13:31;20.70;99.90
41928;DHT22;27616;51.420;6.788;2023-08-08T14:15:57;20.40;99.90
41928;DHT22;27616;51.420;6.788;2023-08-08T14:18:22;20.30;99.90
41928;DHT22;27616;51.420;6.788;2023-08-08T14:20:48;20.10;99.90
41928;DHT22;27616;51.420;6.788;2023-08-08T14:23:14;20.10;99.90
41928;DHT22;27616;51.420;6.788;2023-08-08T14:25:41;20.00;99.90
41928;DHT22;27616;51.420;6.788;2023-08-08T14:28:06;20.00;99.90
41928;DHT22;27616;51.420;6.788;2023-08-08T14:30:32;20.10;99.90
41928;DHT22;27616;51.420;6.788;2023-08-08T14:32:58;20.30;99.90
41928;DHT22;27616;51.420;6.788;2023-08-08T14:35:23;20.40;99.90
41928;DHT22;27616;51.420;6.788;2023-08-08T14:37:49;20.60;99.90
41928;DHT22;27616;51.420;6.788;2023-08-08T14:40:15;20.60;99.90
41928;DHT22;27616;51.420;6.788;2023-08-08T14:42:41;20.60;99.90
41928;DHT22;27616;51.420;6.788;2023-08-08T14:45:07;20.60;99.90
41928;DHT22;27616;51.420;6.788;2023-08-08T14:47:33;20.50;99.70
41928;DHT22;27616;51.420;6.788;2023-08-08T14:49:58;20.40;99.90
41928;DHT22;27616;51.420;6.788;2023-08-08T14:52:24;20.40;99.40
41928;DHT22;27616;51.420;6.788;2023-08-08T14:54:51;20.40;99.50
41928;DHT22;27616;51.420;6.788;2023-08-08T14:57:16;20.30;99.20
41928;DHT22;27616;51.420;6.788;2023-08-08T14:59:42;20.40;98.90
41928;DHT22;27616;51.420;6.788;2023-08-08T15:02:08;20.50;98.70
41928;DHT22;27616;51.420;6.788;2023-08-08T15:04:33;20.60;99.10
41928;DHT22;27616;51.420;6.788;2023-08-08T15:06:59;20.60;98.50
41928;DHT22;27616;51.420;6.788;2023-08-08T15:09:25;20.50;98.30
41928;DHT22;27616;51.420;6.788;2023-08-08T15:11:50;20.60;98.90
41928;DHT22;27616;51.420;6.788;2023-08-08T15:14:16;20.80;97.40
41928;DHT22;27616;51.420;6.788;2023-08-08T15:16:41;21.00;98.00
41928;DHT22;27616;51.420;6.788;2023-08-08T15:19:08;21.10;97.40
41928;DHT22;27616;51.420;6.788;2023-08-08T15:21:34;21.10;97.00
41928;DHT22;27616;51.420;6.788;2023-08-08T15:23:59;21.10;96.40
41928;DHT22;27616;51.420;6.788;2023-08-08T15:26:25;21.20;97.00
41928;DHT22;27616;51.420;6.788;2023-08-08T15:28:51;21.10;96.60
41928;DHT22;27616;51.420;6.788;2023-08-08T15:31:16;21.00;96.70